createdAt,value
2019-05-05T00:00:55.121Z,95457.92
2019-05-05T00:03:55.689Z,95465.09
2019-05-05T00:06:44.541Z,95460.13
2019-05-05T00:09:34.550Z,95462.45
2019-05-05T00:12:45.949Z,95460.07
2019-05-05T00:16:07.215Z,95454.67
2019-05-05T00:18:54.978Z,95462.58
2019-05-05T00:21:44.553Z,95457.36
2019-05-05T00:24:31.499Z,95462.75
2019-05-05T00:27:19.087Z,95457.66
2019-05-05T00:30:06.877Z,95458.48
2019-05-05T00:32:55.028Z,95455.19
2019-05-05T00:35:42.522Z,95454.08
2019-05-05T00:38:29.671Z,95460.07
2019-05-05T00:41:16.856Z,95463.52
2019-05-05T00:44:04.913Z,95458.72
2019-05-05T00:47:09.306Z,95456.31
2019-05-05T00:49:56.469Z,95458.44
2019-05-05T00:52:44.646Z,95457.74
2019-05-05T00:55:34.976Z,95456.97
2019-05-05T00:58:22.018Z,95460.29
2019-05-05T01:01:18.444Z,95449.71
2019-05-05T01:04:07.763Z,95454.20
2019-05-05T01:06:55.178Z,95457.36
2019-05-05T01:09:45.113Z,95460.42
2019-05-05T01:12:34.336Z,95462.69
2019-05-05T01:15:22.292Z,95455.77
2019-05-05T01:18:09.777Z,95466.37
2019-05-05T01:20:57.210Z,95468.86
2019-05-05T01:23:45.518Z,95475.52
2019-05-05T01:26:35.245Z,95471.20
2019-05-05T01:29:22.717Z,95477.14
2019-05-05T01:32:15.286Z,95474.13
2019-05-05T01:35:02.624Z,95470.94
2019-05-05T01:38:01.825Z,95475.64
2019-05-05T01:41:14.631Z,95481.05
2019-05-05T01:44:01.562Z,95484.31
2019-05-05T01:46:49.447Z,95487.83
2019-05-05T01:49:36.610Z,95484.73
2019-05-05T01:52:25.452Z,95488.03
2019-05-05T01:55:14.756Z,95496.60
2019-05-05T01:58:04.565Z,95497.70
2019-05-05T02:00:51.356Z,95492.56
2019-05-05T02:03:39.372Z,95479.45
2019-05-05T02:06:26.860Z,95479.15
2019-05-05T02:09:15.909Z,95472.15
2019-05-05T02:12:05.165Z,95480.43
2019-05-05T02:14:52.345Z,95476.28
2019-05-05T02:17:39.998Z,95471.11
2019-05-05T02:20:51.534Z,95470.56
2019-05-05T02:23:39.115Z,95467.03
2019-05-05T02:26:26.536Z,95464.48
2019-05-05T02:29:35.318Z,95472.86
2019-05-05T02:32:48.187Z,95472.76
2019-05-05T02:35:35.627Z,95478.33
2019-05-05T02:38:26.219Z,95481.09
2019-05-05T02:41:15.424Z,95474.32
2019-05-05T02:44:04.865Z,95478.41
2019-05-05T02:47:05.721Z,95477.77
2019-05-05T02:49:54.862Z,95482.80
2019-05-05T02:52:44.248Z,95487.29
2019-05-05T02:55:32.838Z,95493.72
2019-05-05T02:58:21.088Z,95497.72
2019-05-05T03:01:26.538Z,95499.51
2019-05-05T03:04:14.366Z,95498.56
2019-05-05T03:07:04.732Z,95490.77
2019-05-05T03:09:54.532Z,95494.59
2019-05-05T03:12:43.803Z,95493.08
2019-05-05T03:15:51.194Z,95491.91
2019-05-05T03:18:38.734Z,95490.56
2019-05-05T03:21:26.167Z,95502.41
2019-05-05T03:24:14.498Z,95492.53
2019-05-05T03:27:03.801Z,95492.04
2019-05-05T03:29:53.484Z,95486.03
2019-05-05T03:32:45.251Z,95484.61
2019-05-05T03:35:31.261Z,95480.00
2019-05-05T03:38:18.695Z,95477.81
2019-05-05T03:41:09.019Z,95476.66
2019-05-05T03:44:07.370Z,95475.01
2019-05-05T03:46:55.483Z,95474.84
2019-05-05T03:49:44.189Z,95470.02
2019-05-05T03:52:31.669Z,95476.33
2019-05-05T03:55:19.815Z,95472.80
2019-05-05T03:58:07.248Z,95477.18
2019-05-05T04:01:31.227Z,95475.84
2019-05-05T04:04:25.672Z,95472.76
2019-05-05T04:07:14.010Z,95472.39
2019-05-05T04:10:03.759Z,95470.72
2019-05-05T04:12:51.245Z,95477.97
2019-05-05T04:15:40.397Z,95475.95
2019-05-05T04:18:29.427Z,95474.06
2019-05-05T04:21:29.580Z,95485.43
2019-05-05T04:24:07.013Z,95482.98
2019-05-05T04:26:54.656Z,95492.12
2019-05-05T04:29:43.991Z,95490.08
2019-05-05T04:32:31.604Z,95487.03
2019-05-05T04:35:18.873Z,95488.25
2019-05-05T04:38:06.978Z,95496.02
2019-05-05T04:40:54.714Z,95500.19
2019-05-05T04:43:44.073Z,95502.17
2019-05-05T04:46:33.717Z,95502.09
2019-05-05T04:49:27.401Z,95504.64
2019-05-05T04:52:15.755Z,95503.27
2019-05-05T04:55:03.908Z,95504.60
2019-05-05T04:57:51.199Z,95505.98
2019-05-05T05:00:38.611Z,95505.98
2019-05-05T05:03:50.059Z,95515.36
2019-05-05T05:06:41.175Z,95514.92
2019-05-05T05:09:28.547Z,95517.86
2019-05-05T05:12:16.159Z,95528.23
2019-05-05T05:15:04.409Z,95522.31
2019-05-05T05:17:59.272Z,95532.51
2019-05-05T05:20:46.669Z,95527.67
2019-05-05T05:23:34.221Z,95527.97
2019-05-05T05:26:24.125Z,95533.71
2019-05-05T05:29:10.989Z,95532.38
2019-05-05T05:31:58.602Z,95540.89
2019-05-05T05:34:45.727Z,95538.12
2019-05-05T05:37:34.266Z,95549.19
2019-05-05T05:40:37.515Z,95549.48
2019-05-05T05:43:33.540Z,95552.69
2019-05-05T05:46:30.572Z,95551.86
2019-05-05T05:49:28.339Z,95562.58
2019-05-05T05:52:19.231Z,95564.40
2019-05-05T05:55:05.435Z,95566.00
2019-05-05T05:57:54.196Z,95567.72
2019-05-05T06:00:44.259Z,95568.11
2019-05-05T06:03:33.762Z,95566.25
2019-05-05T06:06:20.872Z,95573.05
2019-05-05T06:09:08.450Z,95581.82
2019-05-05T06:11:56.109Z,95586.64
2019-05-05T06:14:44.734Z,95589.24
2019-05-05T06:17:34.162Z,95584.48
2019-05-05T06:20:21.207Z,95584.17
2019-05-05T06:23:08.968Z,95588.56
2019-05-05T06:25:57.086Z,95591.92
2019-05-05T06:28:44.876Z,95603.32
2019-05-05T06:31:34.250Z,95607.10
2019-05-05T06:34:21.424Z,95613.09
2019-05-05T06:37:09.098Z,95609.61
2019-05-05T06:39:59.422Z,95613.54
2019-05-05T06:43:02.156Z,95614.98
2019-05-05T06:45:54.337Z,95622.45
2019-05-05T06:48:43.713Z,95623.81
2019-05-05T06:51:31.191Z,95629.44
2019-05-05T06:54:18.756Z,95632.47
2019-05-05T06:57:06.178Z,95638.40
2019-05-05T06:59:54.427Z,95639.63
2019-05-05T07:02:44.453Z,95642.88
2019-05-05T07:05:34.044Z,95642.09
2019-05-05T07:08:20.950Z,95650.77
2019-05-05T07:11:08.695Z,95649.47
2019-05-05T07:13:56.060Z,95651.28
2019-05-05T07:16:43.905Z,95658.76
2019-05-05T07:19:31.447Z,95656.73
2019-05-05T07:22:19.602Z,95660.27
2019-05-05T07:25:07.141Z,95658.08
2019-05-05T07:27:54.793Z,95661.91
2019-05-05T07:30:44.185Z,95660.66
2019-05-05T07:33:31.537Z,95667.41
2019-05-05T07:36:39.002Z,95661.66
2019-05-05T07:39:27.026Z,95664.77
2019-05-05T07:42:15.042Z,95656.23
2019-05-05T07:45:05.453Z,95664.77
2019-05-05T07:47:53.802Z,95663.91
2019-05-05T07:50:41.181Z,95664.87
2019-05-05T07:53:29.134Z,95667.67
2019-05-05T07:56:16.501Z,95665.71
2019-05-05T07:59:04.073Z,95661.92
2019-05-05T08:01:51.534Z,95658.84
2019-05-05T08:04:39.464Z,95665.52
2019-05-05T08:07:26.994Z,95654.99
2019-05-05T08:10:14.638Z,95657.53
2019-05-05T08:13:02.152Z,95667.04
2019-05-05T08:15:59.082Z,95654.48
2019-05-05T08:19:05.445Z,95660.62
2019-05-05T08:21:54.215Z,95648.13
2019-05-05T08:25:06.836Z,95654.34
2019-05-05T08:28:04.445Z,95655.98
2019-05-05T08:31:14.468Z,95656.62
2019-05-05T08:34:03.844Z,95657.37
2019-05-05T08:36:50.896Z,95664.19
2019-05-05T08:39:38.375Z,95663.63
2019-05-05T08:42:26.000Z,95672.85
2019-05-05T08:45:13.883Z,95664.87
2019-05-05T08:48:01.685Z,95682.86
2019-05-05T08:50:49.426Z,95670.31
2019-05-05T08:53:44.479Z,95677.72
2019-05-05T08:56:26.405Z,95677.64
2019-05-05T08:59:14.415Z,95673.84
2019-05-05T09:02:04.337Z,95678.81
2019-05-05T09:04:51.088Z,95681.77
2019-05-05T09:07:38.507Z,95687.40
2019-05-05T09:10:25.804Z,95675.62
2019-05-05T09:13:14.356Z,95678.58
2019-05-05T09:16:03.783Z,95678.84
2019-05-05T09:19:04.308Z,95683.72
2019-05-05T09:21:53.984Z,95680.34
2019-05-05T09:24:48.623Z,95679.08
2019-05-05T09:27:48.768Z,95674.70
2019-05-05T09:30:38.894Z,95668.84
2019-05-05T09:33:26.511Z,95683.12
2019-05-05T09:36:14.107Z,95681.16
2019-05-05T09:39:01.634Z,95685.78
2019-05-05T09:41:49.432Z,95693.02
2019-05-05T09:44:36.690Z,95688.69
2019-05-05T09:47:24.164Z,95694.20
2019-05-05T09:50:11.663Z,95695.64
2019-05-05T09:52:59.270Z,95692.38
2019-05-05T09:55:46.747Z,95688.14
2019-05-05T09:58:34.858Z,95697.91
2019-05-05T10:01:24.430Z,95694.78
2019-05-05T10:04:13.733Z,95697.72
2019-05-05T10:07:00.448Z,95703.10
2019-05-05T10:09:48.079Z,95716.13
2019-05-05T10:12:35.975Z,95716.78
2019-05-05T10:15:23.566Z,95711.27
2019-05-05T10:18:13.917Z,95709.62
2019-05-05T10:21:00.557Z,95706.73
2019-05-05T10:23:50.059Z,95708.91
2019-05-05T10:26:37.433Z,95709.60
2019-05-05T10:29:25.201Z,95719.67
2019-05-05T10:32:13.832Z,95712.28
2019-05-05T10:35:04.471Z,95712.63
2019-05-05T10:37:54.497Z,95712.98
2019-05-05T10:40:44.562Z,95703.38
2019-05-05T10:43:35.114Z,95709.67
2019-05-05T10:46:27.862Z,95716.19
2019-05-05T10:49:16.183Z,95718.27
2019-05-05T10:52:03.963Z,95725.80
2019-05-05T10:54:56.735Z,95736.97
2019-05-05T10:57:48.989Z,95738.17
2019-05-05T11:00:44.625Z,95738.18
2019-05-05T11:03:34.417Z,95736.76
2019-05-05T11:06:22.087Z,95736.67
2019-05-05T11:09:09.584Z,95731.79
2019-05-05T11:11:57.264Z,95739.59
2019-05-05T11:14:44.948Z,95740.01
2019-05-05T11:17:32.420Z,95740.95
2019-05-05T11:20:19.933Z,95738.44
2019-05-05T11:23:07.590Z,95739.81
2019-05-05T11:25:54.938Z,95746.58
2019-05-05T11:28:42.047Z,95744.30
2019-05-05T11:31:29.793Z,95740.77
2019-05-05T11:34:28.998Z,95741.41
2019-05-05T11:37:18.959Z,95737.52
2019-05-05T11:40:06.310Z,95738.83
2019-05-05T11:42:54.115Z,95738.84
2019-05-05T11:45:43.704Z,95728.45
2019-05-05T11:48:30.520Z,95733.11
2019-05-05T11:51:18.485Z,95727.08
2019-05-05T11:54:06.410Z,95725.97
2019-05-05T11:56:54.141Z,95726.80
2019-05-05T11:59:41.972Z,95727.88
2019-05-05T12:02:29.499Z,95729.32
2019-05-05T12:05:17.335Z,95730.72
2019-05-05T12:08:05.149Z,95746.11
2019-05-05T12:11:00.254Z,95737.42
2019-05-05T12:13:48.110Z,95753.38
2019-05-05T12:16:35.233Z,95748.32
2019-05-05T12:19:24.367Z,95746.25
2019-05-05T12:22:12.153Z,95750.17
2019-05-05T12:25:01.360Z,95747.31
2019-05-05T12:28:08.149Z,95745.75
2019-05-05T12:30:57.139Z,95738.53
2019-05-05T12:33:44.381Z,95741.52
2019-05-05T12:36:34.052Z,95731.78
2019-05-05T12:39:21.469Z,95730.66
2019-05-05T12:42:08.961Z,95723.67
2019-05-05T12:45:01.553Z,95717.62
2019-05-05T12:48:07.080Z,95720.67
2019-05-05T12:50:54.759Z,95724.93
2019-05-05T12:53:41.999Z,95732.97
2019-05-05T12:56:29.364Z,95729.00
2019-05-05T12:59:22.166Z,95723.89
2019-05-05T13:02:09.601Z,95730.88
2019-05-05T13:04:57.327Z,95739.27
2019-05-05T13:07:45.282Z,95733.09
2019-05-05T13:10:34.383Z,95729.43
2019-05-05T13:13:23.537Z,95728.94
2019-05-05T13:16:13.482Z,95732.06
2019-05-05T13:19:04.339Z,95731.48
2019-05-05T13:22:13.622Z,95723.64
2019-05-05T13:25:26.421Z,95726.06
2019-05-05T13:28:14.511Z,95721.10
2019-05-05T13:31:04.510Z,95722.83
2019-05-05T13:33:51.335Z,95729.27
2019-05-05T13:36:39.389Z,95730.34
2019-05-05T13:39:26.729Z,95733.45
2019-05-05T13:42:14.775Z,95724.06
2019-05-05T13:45:23.664Z,95722.33
2019-05-05T13:48:10.711Z,95715.91
2019-05-05T13:51:01.180Z,95720.40
2019-05-05T13:53:49.354Z,95726.84
2019-05-05T13:56:36.952Z,95732.62
2019-05-05T13:59:25.618Z,95733.14
2019-05-05T14:02:13.764Z,95744.08
2019-05-05T14:05:01.547Z,95745.77
2019-05-05T14:07:48.913Z,95748.45
2019-05-05T14:10:35.983Z,95745.59
2019-05-05T14:13:24.705Z,95742.88
2019-05-05T14:16:14.330Z,95744.30
2019-05-05T14:19:04.250Z,95740.33
2019-05-05T14:21:51.340Z,95737.95
2019-05-05T14:24:53.761Z,95741.54
2019-05-05T14:27:43.531Z,95730.89
2019-05-05T14:30:38.448Z,95727.20
2019-05-05T14:33:28.890Z,95722.30
2019-05-05T14:36:24.501Z,95719.08
2019-05-05T14:39:14.765Z,95733.33
2019-05-05T14:42:04.474Z,95733.37
2019-05-05T14:44:51.803Z,95744.67
2019-05-05T14:47:39.752Z,95749.20
2019-05-05T14:50:26.730Z,95745.67
2019-05-05T14:53:14.562Z,95748.58
2019-05-05T14:56:04.479Z,95757.53
2019-05-05T14:58:51.203Z,95756.07
2019-05-05T15:01:38.905Z,95755.15
2019-05-05T15:04:28.390Z,95759.66
2019-05-05T15:07:33.826Z,95755.98
2019-05-05T15:10:38.833Z,95758.84
2019-05-05T15:13:26.332Z,95762.67
2019-05-05T15:16:14.025Z,95774.38
2019-05-05T15:19:03.923Z,95775.70
2019-05-05T15:21:51.011Z,95779.58
2019-05-05T15:24:38.641Z,95781.56
2019-05-05T15:27:26.010Z,95780.08
2019-05-05T15:30:14.287Z,95779.27
2019-05-05T15:33:01.915Z,95774.52
2019-05-05T15:35:49.633Z,95774.23
2019-05-05T15:38:37.251Z,95772.99
2019-05-05T15:41:24.935Z,95773.44
2019-05-05T15:44:13.465Z,95778.14
2019-05-05T15:47:01.442Z,95772.73
2019-05-05T15:49:48.877Z,95777.38
2019-05-05T15:52:36.948Z,95778.63
2019-05-05T15:55:24.532Z,95782.23
2019-05-05T15:58:14.012Z,95779.36
2019-05-05T16:01:04.578Z,95793.16
2019-05-05T16:03:51.847Z,95790.77
2019-05-05T16:06:39.564Z,95799.83
2019-05-05T16:09:27.117Z,95797.19
2019-05-05T16:12:14.507Z,95799.88
2019-05-05T16:15:15.259Z,95789.45
2019-05-05T16:18:30.525Z,95804.81
2019-05-05T16:21:51.955Z,95798.57
2019-05-05T16:24:40.879Z,95800.08
2019-05-05T16:27:28.365Z,95807.06
2019-05-05T16:30:16.825Z,95798.22
2019-05-05T16:33:04.522Z,95804.23
2019-05-05T16:35:52.066Z,95810.85
2019-05-05T16:38:39.348Z,95806.56
2019-05-05T16:41:26.762Z,95806.12
2019-05-05T16:44:15.844Z,95805.92
2019-05-05T16:47:04.733Z,95803.86
2019-05-05T16:49:53.820Z,95804.94
2019-05-05T16:52:46.426Z,95800.05
2019-05-05T16:55:38.629Z,95806.73
2019-05-05T16:58:25.933Z,95802.44
2019-05-05T17:01:14.999Z,95810.13
2019-05-05T17:04:11.266Z,95804.59
2019-05-05T17:06:51.819Z,95807.42
2019-05-05T17:09:39.620Z,95809.67
2019-05-05T17:12:27.372Z,95816.44
2019-05-05T17:15:23.564Z,95822.04
2019-05-05T17:18:35.990Z,95822.34
2019-05-05T17:21:26.676Z,95830.33
2019-05-05T17:24:14.442Z,95833.44
2019-05-05T17:27:03.596Z,95830.86
2019-05-05T17:29:50.773Z,95831.75
2019-05-05T17:32:38.030Z,95840.94
2019-05-05T17:35:25.390Z,95839.70
2019-05-05T17:38:15.282Z,95849.55
2019-05-05T17:41:24.791Z,95862.26
2019-05-05T17:44:20.680Z,95864.23
2019-05-05T17:47:18.096Z,95870.73
2019-05-05T17:50:19.078Z,95874.91
2019-05-05T17:53:19.548Z,95869.80
2019-05-05T17:56:09.236Z,95875.27
2019-05-05T17:58:56.864Z,95877.08
2019-05-05T18:01:44.320Z,95875.52
2019-05-05T18:04:33.761Z,95863.28
2019-05-05T18:07:46.261Z,95864.78
2019-05-05T18:10:40.753Z,95873.23
2019-05-05T18:13:35.151Z,95872.97
2019-05-05T18:16:26.549Z,95869.76
2019-05-05T18:19:14.031Z,95883.20
2019-05-05T18:22:01.776Z,95877.20
2019-05-05T18:24:49.607Z,95882.09
2019-05-05T18:27:36.975Z,95877.25
2019-05-05T18:30:24.483Z,95872.76
2019-05-05T18:33:13.719Z,95870.89
2019-05-05T18:36:00.876Z,95874.59
2019-05-05T18:38:48.006Z,95883.17
2019-05-05T18:41:49.978Z,95880.98
2019-05-05T18:44:40.305Z,95882.73
2019-05-05T18:47:27.961Z,95879.98
2019-05-05T18:50:15.479Z,95887.00
2019-05-05T18:53:04.672Z,95895.70
2019-05-05T18:55:53.925Z,95889.13
2019-05-05T18:58:41.141Z,95887.79
2019-05-05T19:01:48.273Z,95902.52
2019-05-05T19:04:49.095Z,95890.73
2019-05-05T19:07:52.321Z,95902.58
2019-05-05T19:10:28.492Z,95899.31
2019-05-05T19:13:16.245Z,95914.38
2019-05-05T19:16:03.739Z,95917.42
2019-05-05T19:18:51.548Z,95915.72
2019-05-05T19:21:41.323Z,95923.22
2019-05-05T19:24:28.345Z,95927.97
2019-05-05T19:27:16.111Z,95934.33
2019-05-05T19:30:04.444Z,95933.83
2019-05-05T19:32:54.080Z,95942.13
2019-05-05T19:35:45.081Z,95942.85
2019-05-05T19:38:30.612Z,95939.88
2019-05-05T19:41:18.379Z,95943.28
2019-05-05T19:44:06.258Z,95941.11
2019-05-05T19:46:59.119Z,95942.34
2019-05-05T19:49:53.404Z,95937.17
2019-05-05T19:52:40.897Z,95944.30
2019-05-05T19:55:27.952Z,95952.45
2019-05-05T19:58:15.366Z,95948.29
2019-05-05T20:01:05.038Z,95943.52
2019-05-05T20:03:52.873Z,95951.63
2019-05-05T20:06:40.911Z,95949.41
2019-05-05T20:09:28.746Z,95950.14
2019-05-05T20:12:18.417Z,95951.05
2019-05-05T20:15:07.956Z,95954.19
2019-05-05T20:17:55.813Z,95951.38
2019-05-05T20:20:44.519Z,95952.83
2019-05-05T20:23:34.019Z,95950.38
2019-05-05T20:26:21.514Z,95948.37
2019-05-05T20:29:14.179Z,95946.20
2019-05-05T20:31:59.200Z,95945.52
2019-05-05T20:35:04.463Z,95946.39
2019-05-05T20:37:55.740Z,95947.80
2019-05-05T20:40:44.615Z,95946.59
2019-05-05T20:43:31.976Z,95938.67
2019-05-05T20:46:19.914Z,95939.02
2019-05-05T20:49:07.652Z,95936.42
2019-05-05T20:51:55.309Z,95938.45
2019-05-05T20:54:44.072Z,95943.48
2019-05-05T20:57:31.883Z,95942.09
2019-05-05T21:00:19.160Z,95944.00
2019-05-05T21:03:06.606Z,95938.28
2019-05-05T21:05:54.114Z,95937.89
2019-05-05T21:08:43.804Z,95932.91
2019-05-05T21:11:30.959Z,95930.63
2019-05-05T21:14:31.257Z,95927.02
2019-05-05T21:17:08.860Z,95926.38
2019-05-05T21:19:56.490Z,95932.72
2019-05-05T21:23:03.648Z,95935.50
2019-05-05T21:25:58.096Z,95927.09
2019-05-05T21:28:46.104Z,95932.61
2019-05-05T21:31:34.593Z,95936.48
2019-05-05T21:34:22.077Z,95935.92
2019-05-05T21:37:09.740Z,95940.14
2019-05-05T21:39:57.634Z,95935.73
2019-05-05T21:42:45.017Z,95935.31
2019-05-05T21:45:34.744Z,95927.72
2019-05-05T21:48:24.233Z,95934.86
2019-05-05T21:51:23.978Z,95927.48
2019-05-05T21:54:29.265Z,95931.77
2019-05-05T21:57:35.754Z,95932.33
2019-05-05T22:00:41.422Z,95927.89
2019-05-05T22:03:34.814Z,95934.69
2019-05-05T22:06:23.979Z,95937.95
2019-05-05T22:09:11.363Z,95941.95
2019-05-05T22:11:59.014Z,95938.86
2019-05-05T22:14:46.605Z,95933.92
2019-05-05T22:17:36.310Z,95936.29
2019-05-05T22:20:38.254Z,95934.75
2019-05-05T22:23:25.780Z,95933.96
2019-05-05T22:26:14.623Z,95938.50
2019-05-05T22:29:02.070Z,95939.67
2019-05-05T22:31:49.624Z,95943.69
2019-05-05T22:34:37.137Z,95938.17
2019-05-05T22:37:24.303Z,95935.78
2019-05-05T22:40:20.504Z,95941.62
2019-05-05T22:43:08.243Z,95935.04
2019-05-05T22:45:56.123Z,95938.09
2019-05-05T22:48:44.292Z,95934.77
2019-05-05T22:51:33.818Z,95932.49
2019-05-05T22:54:20.965Z,95930.13
2019-05-05T22:57:08.393Z,95936.36
2019-05-05T22:59:56.615Z,95936.23
2019-05-05T23:02:48.722Z,95936.14
2019-05-05T23:05:58.087Z,95938.31
2019-05-05T23:08:45.620Z,95935.75
2019-05-05T23:11:33.520Z,95942.91
2019-05-05T23:14:27.939Z,95935.16
2019-05-05T23:17:37.151Z,95940.16
2019-05-05T23:20:51.453Z,95938.30
2019-05-05T23:23:56.656Z,95939.13
2019-05-05T23:26:44.790Z,95936.64
2019-05-05T23:29:33.985Z,95936.64
2019-05-05T23:32:20.752Z,95943.19
2019-05-05T23:35:08.211Z,95939.30
2019-05-05T23:37:56.118Z,95937.78
2019-05-05T23:40:43.691Z,95937.19
2019-05-05T23:43:31.402Z,95938.25
2019-05-05T23:46:18.953Z,95941.19
2019-05-05T23:49:06.314Z,95943.60
2019-05-05T23:51:54.164Z,95934.41
2019-05-05T23:54:41.793Z,95940.83
2019-05-05T23:57:29.453Z,95933.81
